createdAt,value
2019-05-14T00:01:11.832Z,12.82
2019-05-14T00:03:42.524Z,12.79
2019-05-14T00:06:13.825Z,12.76
2019-05-14T00:08:45.130Z,12.74
2019-05-14T00:11:16.546Z,12.70
2019-05-14T00:13:47.808Z,12.67
2019-05-14T00:16:21.641Z,12.64
2019-05-14T00:18:52.151Z,12.59
2019-05-14T00:21:23.455Z,12.57
2019-05-14T00:23:54.705Z,12.54
2019-05-14T00:26:25.977Z,12.51
2019-05-14T00:28:57.237Z,12.48
2019-05-14T00:31:28.651Z,12.44
2019-05-14T00:34:01.743Z,12.40
2019-05-14T00:36:33.181Z,12.36
2019-05-14T00:39:04.959Z,12.30
2019-05-14T00:41:36.305Z,12.27
2019-05-14T00:44:07.672Z,12.23
2019-05-14T00:46:40.969Z,12.19
2019-05-14T00:49:12.025Z,12.15
2019-05-14T00:51:43.246Z,12.11
2019-05-14T00:54:14.495Z,12.08
2019-05-14T00:56:45.767Z,12.03
2019-05-14T00:59:17.090Z,12.01
2019-05-14T01:01:48.362Z,11.97
2019-05-14T01:04:19.662Z,11.92
2019-05-14T01:06:51.238Z,11.86
2019-05-14T01:09:22.785Z,11.80
2019-05-14T01:11:54.014Z,11.75
2019-05-14T01:14:25.261Z,11.72
2019-05-14T01:16:56.526Z,11.69
2019-05-14T01:19:27.785Z,11.68
2019-05-14T01:22:01.539Z,11.67
2019-05-14T01:24:32.499Z,11.65
2019-05-14T01:27:03.878Z,11.63
2019-05-14T01:29:35.158Z,11.59
2019-05-14T01:32:06.427Z,11.57
2019-05-14T01:34:37.696Z,11.54
2019-05-14T01:37:11.393Z,11.51
2019-05-14T01:39:42.195Z,11.49
2019-05-14T01:42:13.573Z,11.48
2019-05-14T01:44:44.812Z,11.46
2019-05-14T01:47:16.010Z,11.44
2019-05-14T01:49:47.374Z,11.42
2019-05-14T01:52:18.640Z,11.40
2019-05-14T01:54:51.581Z,11.38
2019-05-14T01:57:23.032Z,11.36
2019-05-14T01:59:54.366Z,11.33
2019-05-14T02:02:25.743Z,11.30
2019-05-14T02:04:57.251Z,11.25
2019-05-14T02:07:28.696Z,11.23
2019-05-14T02:10:01.165Z,11.20
2019-05-14T02:12:33.668Z,11.17
2019-05-14T02:15:05.200Z,11.16
2019-05-14T02:17:36.457Z,11.12
2019-05-14T02:20:08.803Z,11.08
2019-05-14T02:22:41.678Z,11.05
2019-05-14T02:25:13.230Z,11.03
2019-05-14T02:27:44.533Z,11.00
2019-05-14T02:30:19.122Z,10.97
2019-05-14T02:32:49.813Z,10.94
2019-05-14T02:35:21.388Z,10.91
2019-05-14T02:37:52.672Z,10.87
2019-05-14T02:40:24.683Z,10.82
2019-05-14T02:42:59.043Z,10.79
2019-05-14T02:45:30.283Z,10.77
2019-05-14T02:48:02.969Z,10.74
2019-05-14T02:50:34.273Z,10.72
2019-05-14T02:53:05.603Z,10.70
2019-05-14T02:55:39.011Z,10.68
2019-05-14T02:58:10.163Z,10.65
2019-05-14T03:00:41.690Z,10.63
2019-05-14T03:03:13.057Z,10.59
2019-05-14T03:05:44.805Z,10.54
2019-05-14T03:08:19.481Z,10.51
2019-05-14T03:10:50.317Z,10.47
2019-05-14T03:13:22.045Z,10.45
2019-05-14T03:15:53.444Z,10.43
2019-05-14T03:18:24.725Z,10.41
2019-05-14T03:20:56.186Z,10.38
2019-05-14T03:23:30.169Z,10.36
2019-05-14T03:26:01.089Z,10.31
2019-05-14T03:28:32.355Z,10.27
2019-05-14T03:31:04.255Z,10.25
2019-05-14T03:33:36.004Z,10.22
2019-05-14T03:36:15.081Z,10.16
2019-05-14T03:38:40.301Z,10.11
2019-05-14T03:41:14.063Z,10.06
2019-05-14T03:43:44.653Z,10.04
2019-05-14T03:46:16.022Z,10.03
2019-05-14T03:48:49.258Z,10.01
2019-05-14T03:51:20.607Z,9.99
2019-05-14T03:54:01.295Z,9.98
2019-05-14T03:56:25.044Z,9.98
2019-05-14T03:58:59.648Z,9.98
2019-05-14T04:01:29.886Z,9.97
2019-05-14T04:04:01.591Z,9.95
2019-05-14T04:06:33.017Z,9.95
2019-05-14T04:09:09.463Z,9.93
2019-05-14T04:11:41.118Z,9.92
2019-05-14T04:14:14.116Z,9.93
2019-05-14T04:17:01.355Z,9.92
2019-05-14T04:19:20.292Z,9.93
2019-05-14T04:21:52.706Z,9.93
2019-05-14T04:24:24.088Z,9.94
2019-05-14T04:27:03.406Z,9.95
2019-05-14T04:29:30.826Z,9.94
2019-05-14T04:32:03.945Z,9.94
2019-05-14T04:34:35.283Z,9.94
2019-05-14T04:37:09.720Z,9.93
2019-05-14T04:39:39.965Z,9.92
2019-05-14T04:42:11.594Z,9.92
2019-05-14T04:44:42.871Z,9.93
2019-05-14T04:47:27.970Z,9.95
2019-05-14T04:49:50.221Z,9.96
2019-05-14T04:52:20.840Z,10.00
2019-05-14T04:54:53.081Z,10.02
2019-05-14T04:57:25.671Z,10.05
2019-05-14T04:59:59.866Z,10.09
2019-05-14T05:02:30.543Z,10.12
2019-05-14T05:05:02.051Z,10.17
2019-05-14T05:07:33.368Z,10.20
2019-05-14T05:10:05.027Z,10.23
2019-05-14T05:12:38.780Z,10.27
2019-05-14T05:15:09.656Z,10.33
2019-05-14T05:17:48.098Z,10.37
2019-05-14T05:20:14.129Z,10.40
2019-05-14T05:22:48.510Z,10.43
2019-05-14T05:25:20.680Z,10.47
2019-05-14T05:27:52.031Z,10.53
2019-05-14T05:30:23.434Z,10.57
2019-05-14T05:32:54.733Z,10.64
2019-05-14T05:35:26.025Z,10.70
2019-05-14T05:37:58.290Z,10.76
2019-05-14T05:40:29.765Z,10.82
2019-05-14T05:43:01.040Z,10.85
2019-05-14T05:45:32.418Z,10.91
2019-05-14T05:48:03.882Z,10.93
2019-05-14T05:50:35.140Z,10.96
2019-05-14T05:53:08.869Z,10.97
2019-05-14T05:55:39.602Z,10.99
2019-05-14T05:58:10.861Z,11.02
2019-05-14T06:00:42.226Z,11.04
2019-05-14T06:03:13.455Z,11.09
2019-05-14T06:05:44.725Z,11.09
2019-05-14T06:08:16.003Z,11.14
2019-05-14T06:10:48.981Z,11.18
2019-05-14T06:13:20.284Z,11.21
2019-05-14T06:15:52.449Z,11.24
2019-05-14T06:18:23.813Z,11.31
2019-05-14T06:20:55.188Z,11.35
2019-05-14T06:23:28.483Z,11.40
2019-05-14T06:26:00.196Z,11.43
2019-05-14T06:28:33.531Z,11.45
2019-05-14T06:31:04.774Z,11.48
2019-05-14T06:33:38.778Z,11.51
2019-05-14T06:36:09.346Z,11.55
2019-05-14T06:38:40.626Z,11.62
2019-05-14T06:41:11.959Z,11.67
2019-05-14T06:43:43.299Z,11.73
2019-05-14T06:46:14.595Z,11.79
2019-05-14T06:48:48.344Z,11.86
2019-05-14T06:51:19.866Z,11.93
2019-05-14T06:53:52.776Z,11.99
2019-05-14T06:56:24.197Z,12.05
2019-05-14T06:58:58.191Z,12.11
2019-05-14T07:01:29.142Z,12.13
2019-05-14T07:04:01.512Z,12.17
2019-05-14T07:06:32.854Z,12.22
2019-05-14T07:09:08.078Z,12.28
2019-05-14T07:11:39.050Z,12.32
2019-05-14T07:14:11.599Z,12.35
2019-05-14T07:16:44.094Z,12.37
2019-05-14T07:19:16.035Z,12.40
2019-05-14T07:21:49.149Z,12.39
2019-05-14T07:24:20.603Z,12.40
2019-05-14T07:26:52.875Z,12.43
2019-05-14T07:29:25.436Z,12.47
2019-05-14T07:31:58.316Z,12.49
2019-05-14T07:34:29.688Z,12.55
2019-05-14T07:37:00.959Z,12.60
2019-05-14T07:39:32.245Z,12.64
2019-05-14T07:42:03.560Z,12.68
2019-05-14T07:44:34.835Z,12.66
2019-05-14T07:47:08.190Z,12.69
2019-05-14T07:49:39.234Z,12.69
2019-05-14T07:52:10.613Z,12.70
2019-05-14T07:54:42.112Z,12.74
2019-05-14T07:57:13.414Z,12.77
2019-05-14T07:59:44.864Z,12.81
2019-05-14T08:02:16.185Z,12.87
2019-05-14T08:04:48.666Z,12.90
2019-05-14T08:07:20.121Z,12.92
2019-05-14T08:09:51.409Z,12.93
2019-05-14T08:12:22.633Z,12.96
2019-05-14T08:15:13.190Z,12.98
2019-05-14T08:17:28.123Z,13.02
2019-05-14T08:19:59.518Z,13.07
2019-05-14T08:22:30.920Z,13.13
2019-05-14T08:25:02.153Z,13.17
2019-05-14T08:27:33.529Z,13.26
2019-05-14T08:30:05.085Z,13.31
2019-05-14T08:32:38.871Z,13.31
2019-05-14T08:35:09.468Z,13.33
2019-05-14T08:37:40.843Z,13.33
2019-05-14T08:43:34.766Z,13.36
2019-05-14T08:46:08.203Z,13.37
2019-05-14T08:48:39.187Z,13.37
2019-05-14T08:51:10.852Z,13.37
2019-05-14T08:53:42.467Z,13.39
2019-05-14T08:56:13.693Z,13.41
2019-05-14T08:58:44.985Z,13.42
2019-05-14T09:01:19.189Z,13.42
2019-05-14T09:03:49.596Z,13.46
2019-05-14T09:06:22.197Z,13.50
2019-05-14T09:08:53.379Z,13.54
2019-05-14T09:11:26.139Z,13.57
2019-05-14T09:13:59.406Z,13.65
2019-05-14T09:16:42.774Z,13.71
2019-05-14T09:19:03.727Z,13.75
2019-05-14T09:21:34.985Z,13.78
2019-05-14T09:24:06.170Z,13.83
2019-05-14T09:26:39.062Z,13.86
2019-05-14T09:29:19.380Z,13.87
2019-05-14T09:31:43.518Z,13.90
2019-05-14T09:34:14.822Z,13.90
2019-05-14T09:36:48.729Z,13.93
2019-05-14T09:39:19.010Z,14.04
2019-05-14T09:41:50.211Z,14.20
2019-05-14T09:44:21.356Z,14.32
2019-05-14T09:46:52.576Z,14.41
2019-05-14T09:49:23.787Z,14.50
2019-05-14T09:51:55.039Z,14.58
2019-05-14T09:54:28.803Z,14.63
2019-05-14T09:56:59.411Z,14.65
2019-05-14T09:59:30.748Z,14.69
2019-05-14T10:02:02.060Z,14.77
2019-05-14T10:04:33.197Z,14.82
2019-05-14T10:07:04.501Z,14.87
2019-05-14T10:09:38.643Z,14.92
2019-05-14T10:12:09.056Z,14.97
2019-05-14T10:14:40.534Z,14.98
2019-05-14T10:17:11.750Z,15.02
2019-05-14T10:19:43.001Z,15.07
2019-05-14T10:22:14.243Z,15.08
2019-05-14T10:24:45.674Z,15.10
2019-05-14T10:27:18.964Z,15.14
2019-05-14T10:29:51.241Z,15.18
2019-05-14T10:32:22.450Z,15.25
2019-05-14T10:34:53.602Z,15.28
2019-05-14T10:37:24.807Z,15.29
2019-05-14T10:39:58.463Z,15.30
2019-05-14T10:42:29.426Z,15.35
2019-05-14T10:45:00.796Z,15.42
2019-05-14T10:47:33.307Z,15.47
2019-05-14T10:50:04.712Z,15.55
2019-05-14T10:52:35.931Z,15.60
2019-05-14T10:55:08.021Z,15.63
2019-05-14T10:57:39.331Z,15.67
2019-05-14T11:00:10.771Z,15.75
2019-05-14T11:02:41.993Z,15.77
2019-05-14T11:05:13.319Z,15.78
2019-05-14T11:07:44.508Z,15.82
2019-05-14T11:10:15.852Z,15.85
2019-05-14T11:12:50.152Z,15.84
2019-05-14T11:15:20.291Z,15.80
2019-05-14T11:17:51.521Z,15.81
2019-05-14T11:20:22.660Z,15.75
2019-05-14T11:22:53.857Z,15.72
2019-05-14T11:25:25.086Z,15.75
2019-05-14T11:27:58.467Z,15.81
2019-05-14T11:30:29.306Z,15.85
2019-05-14T11:33:00.587Z,15.91
2019-05-14T11:35:31.808Z,15.98
2019-05-14T11:38:03.098Z,16.01
2019-05-14T11:40:34.516Z,16.01
2019-05-14T11:43:08.250Z,16.09
2019-05-14T11:45:39.490Z,16.17
2019-05-14T11:48:10.906Z,16.30
2019-05-14T11:50:42.172Z,16.39
2019-05-14T11:53:13.382Z,16.46
2019-05-14T11:55:44.634Z,16.49
2019-05-14T11:58:19.871Z,16.55
2019-05-14T12:00:49.054Z,16.58
2019-05-14T12:03:22.028Z,16.57
2019-05-14T12:05:53.163Z,16.58
2019-05-14T12:08:24.358Z,16.57
2019-05-14T12:10:55.561Z,16.61
2019-05-14T12:13:30.072Z,16.66
2019-05-14T12:15:59.723Z,16.70
2019-05-14T12:18:30.913Z,16.73
2019-05-14T12:21:02.066Z,16.72
2019-05-14T12:23:34.483Z,16.76
2019-05-14T12:26:05.652Z,16.86
2019-05-14T12:28:38.645Z,16.97
2019-05-14T12:31:09.816Z,17.12
2019-05-14T12:33:41.044Z,17.28
2019-05-14T12:36:12.376Z,17.38
2019-05-14T12:38:43.640Z,17.44
2019-05-14T12:41:14.849Z,17.45
2019-05-14T12:43:46.021Z,17.45
2019-05-14T12:46:19.847Z,17.52
2019-05-14T12:48:50.503Z,17.63
2019-05-14T12:51:21.753Z,17.72
2019-05-14T12:53:52.956Z,17.80
2019-05-14T12:56:24.173Z,17.83
2019-05-14T12:58:55.434Z,17.84
2019-05-14T13:01:26.624Z,17.84
2019-05-14T13:03:59.197Z,17.92
2019-05-14T13:06:30.655Z,18.00
2019-05-14T13:09:01.884Z,18.14
2019-05-14T13:11:34.666Z,18.22
2019-05-14T13:14:06.037Z,18.19
2019-05-14T13:16:39.625Z,18.15
2019-05-14T13:19:11.154Z,18.09
2019-05-14T13:21:42.398Z,18.06
2019-05-14T13:24:13.577Z,18.02
2019-05-14T13:26:44.857Z,17.96
2019-05-14T13:29:16.093Z,17.94
2019-05-14T13:31:49.591Z,17.95
2019-05-14T13:34:20.321Z,17.95
2019-05-14T13:36:51.690Z,17.94
2019-05-14T13:39:23.092Z,18.12
2019-05-14T13:41:54.319Z,18.48
2019-05-14T13:44:25.495Z,18.63
2019-05-14T13:46:59.549Z,18.65
2019-05-14T13:49:31.222Z,18.57
2019-05-14T13:52:02.525Z,18.47
2019-05-14T13:54:34.766Z,18.35
2019-05-14T13:57:08.324Z,18.21
2019-05-14T13:59:43.887Z,18.11
2019-05-14T14:02:12.166Z,18.00
2019-05-14T14:04:43.342Z,17.98
2019-05-14T14:07:14.522Z,18.16
2019-05-14T14:09:45.776Z,18.23
2019-05-14T14:12:16.977Z,18.35
2019-05-14T14:14:49.337Z,18.55
2019-05-14T14:17:21.628Z,18.65
2019-05-14T14:19:52.922Z,18.74
2019-05-14T14:22:24.247Z,18.82
2019-05-14T14:24:55.550Z,18.87
2019-05-14T14:27:29.712Z,18.87
2019-05-14T14:29:59.716Z,18.91
2019-05-14T14:32:30.894Z,18.96
2019-05-14T14:35:02.164Z,19.06
2019-05-14T14:37:33.318Z,19.15
2019-05-14T14:40:04.541Z,19.24
2019-05-14T14:42:36.195Z,19.44
2019-05-14T14:45:09.444Z,19.71
2019-05-14T14:47:40.881Z,19.62
2019-05-14T14:50:12.266Z,19.42
2019-05-14T14:52:43.616Z,19.19
2019-05-14T14:55:14.796Z,19.11
2019-05-14T14:57:53.544Z,19.10
2019-05-14T15:00:20.303Z,19.18
2019-05-14T15:02:53.252Z,19.25
2019-05-14T15:05:24.541Z,19.77
2019-05-14T15:07:59.901Z,20.20
2019-05-14T15:10:29.965Z,20.23
2019-05-14T15:13:01.184Z,20.02
2019-05-14T15:15:32.656Z,19.79
2019-05-14T15:18:03.878Z,19.54
2019-05-14T15:20:35.203Z,19.32
2019-05-14T15:23:09.478Z,19.22
2019-05-14T15:25:39.546Z,19.43
2019-05-14T15:28:10.869Z,20.15
2019-05-14T15:30:42.470Z,20.85
2019-05-14T15:33:13.874Z,21.24
2019-05-14T15:35:45.749Z,21.31
2019-05-14T15:38:16.927Z,21.32
2019-05-14T15:40:48.876Z,21.23
2019-05-14T15:43:20.201Z,21.14
2019-05-14T15:45:51.401Z,21.03
2019-05-14T15:48:23.588Z,20.85
2019-05-14T15:50:55.044Z,20.70
2019-05-14T15:53:28.932Z,20.55
2019-05-14T15:55:59.591Z,20.39
2019-05-14T15:58:30.956Z,20.26
2019-05-14T16:01:02.350Z,20.12
2019-05-14T16:03:35.285Z,19.95
2019-05-14T16:06:08.814Z,19.81
2019-05-14T16:08:40.400Z,19.68
2019-05-14T16:11:11.779Z,19.51
2019-05-14T16:13:43.083Z,19.36
2019-05-14T16:16:14.453Z,19.19
2019-05-14T16:18:47.980Z,19.05
2019-05-14T16:21:19.028Z,18.94
2019-05-14T16:23:50.264Z,18.86
2019-05-14T16:26:21.639Z,18.70
2019-05-14T16:28:52.880Z,18.55
2019-05-14T16:31:24.201Z,18.46
2019-05-14T16:33:55.391Z,18.31
2019-05-14T16:36:28.756Z,18.11
2019-05-14T16:38:59.813Z,17.95
2019-05-14T16:41:32.011Z,17.81
2019-05-14T16:44:03.865Z,17.70
2019-05-14T16:46:35.108Z,17.60
2019-05-14T16:49:08.770Z,17.56
2019-05-14T16:51:39.368Z,17.46
2019-05-14T16:54:10.746Z,17.39
2019-05-14T16:56:42.046Z,17.29
2019-05-14T16:59:13.296Z,17.19
2019-05-14T17:01:45.903Z,17.07
2019-05-14T17:04:19.067Z,17.01
2019-05-14T17:06:50.494Z,16.94
2019-05-14T17:09:21.988Z,16.89
2019-05-14T17:11:53.284Z,16.89
2019-05-14T17:14:25.748Z,16.89
2019-05-14T17:16:59.442Z,16.83
2019-05-14T17:19:30.019Z,16.80
2019-05-14T17:22:01.544Z,16.78
2019-05-14T17:24:33.225Z,16.79
2019-05-14T17:27:04.967Z,16.82
2019-05-14T17:29:38.720Z,16.88
2019-05-14T17:32:09.341Z,16.97
2019-05-14T17:34:40.791Z,17.12
2019-05-14T17:37:12.332Z,17.28
2019-05-14T17:39:43.563Z,17.45
2019-05-14T17:42:15.147Z,17.62
2019-05-14T17:44:48.245Z,17.72
2019-05-14T17:47:19.680Z,17.83
2019-05-14T17:49:53.728Z,17.93
2019-05-14T17:52:25.538Z,18.00
2019-05-14T17:54:56.791Z,17.98
2019-05-14T17:57:34.786Z,17.90
2019-05-14T18:00:01.575Z,17.78
2019-05-14T18:02:33.640Z,17.64
2019-05-14T18:05:05.860Z,17.49
2019-05-14T18:07:37.605Z,17.33
2019-05-14T18:10:10.148Z,17.19
2019-05-14T18:12:41.508Z,17.05
2019-05-14T18:15:13.174Z,16.91
2019-05-14T18:17:44.468Z,16.77
2019-05-14T18:20:15.929Z,16.63
2019-05-14T18:22:48.685Z,16.55
2019-05-14T18:25:22.909Z,16.44
2019-05-14T18:27:54.176Z,16.35
2019-05-14T18:30:25.403Z,16.26
2019-05-14T18:32:58.379Z,16.17
2019-05-14T18:35:34.975Z,16.08
2019-05-14T18:38:13.509Z,15.98
2019-05-14T18:40:46.666Z,15.86
2019-05-14T18:43:19.276Z,15.76
2019-05-14T18:45:51.060Z,15.68
2019-05-14T18:48:22.595Z,15.58
2019-05-14T18:50:53.867Z,15.48
2019-05-14T18:53:25.151Z,15.37
2019-05-14T18:55:56.343Z,15.24
2019-05-14T18:58:29.361Z,15.12
2019-05-14T19:01:00.567Z,15.03
2019-05-14T19:03:33.435Z,14.97
2019-05-14T19:06:04.924Z,14.92
2019-05-14T19:08:36.604Z,14.88
2019-05-14T19:11:12.556Z,14.84
2019-05-14T19:13:58.626Z,14.76
2019-05-14T19:16:44.107Z,14.71
2019-05-14T19:19:22.749Z,14.67
2019-05-14T19:21:59.423Z,14.62
2019-05-14T19:24:38.278Z,14.59
2019-05-14T19:27:11.501Z,14.57
2019-05-14T19:29:42.782Z,14.51
2019-05-14T19:32:13.990Z,14.44
2019-05-14T19:34:45.289Z,14.37
2019-05-14T19:37:20.504Z,14.31
2019-05-14T19:40:02.804Z,14.26
2019-05-14T19:43:00.674Z,14.21
2019-05-14T19:48:18.908Z,14.08
2019-05-14T19:51:09.609Z,14.03
2019-05-14T19:53:45.775Z,13.97
2019-05-14T19:56:20.222Z,13.89
2019-05-14T19:58:59.827Z,13.83
2019-05-14T20:01:31.314Z,13.80
2019-05-14T20:04:02.622Z,13.75
2019-05-14T20:06:33.991Z,13.71
2019-05-14T20:09:09.235Z,13.67
2019-05-14T20:11:42.157Z,13.64
2019-05-14T20:14:13.455Z,13.59
2019-05-14T20:16:44.756Z,13.55
2019-05-14T20:19:15.985Z,13.50
2019-05-14T20:21:48.162Z,13.44
2019-05-14T20:24:19.474Z,13.39
2019-05-14T20:27:04.947Z,13.34
2019-05-14T20:29:24.104Z,13.29
2019-05-14T20:31:55.565Z,13.26
2019-05-14T20:34:28.555Z,13.23
2019-05-14T20:37:00.909Z,13.17
2019-05-14T20:39:33.561Z,13.12
2019-05-14T20:42:05.161Z,13.08
2019-05-14T20:44:38.612Z,13.04
2019-05-14T20:47:09.874Z,13.00
2019-05-14T20:49:41.730Z,12.94
2019-05-14T20:52:34.099Z,12.88
2019-05-14T20:55:14.149Z,12.84
2019-05-14T20:57:49.102Z,12.77
2019-05-14T21:00:20.651Z,12.73
2019-05-14T21:02:52.094Z,12.69
2019-05-14T21:05:23.371Z,12.63
2019-05-14T21:07:54.801Z,12.58
2019-05-14T21:10:28.788Z,12.55
2019-05-14T21:12:59.683Z,12.51
2019-05-14T21:15:30.980Z,12.49
2019-05-14T21:18:02.380Z,12.46
2019-05-14T21:20:33.741Z,12.43
2019-05-14T21:23:05.078Z,12.38
2019-05-14T21:25:38.527Z,12.34
2019-05-14T21:28:09.480Z,12.29
2019-05-14T21:30:41.869Z,12.20
2019-05-14T21:33:13.442Z,12.15
2019-05-14T21:35:44.826Z,12.13
2019-05-14T21:38:16.212Z,12.11
2019-05-14T21:40:49.770Z,12.08
2019-05-14T21:43:20.588Z,12.03
2019-05-14T21:45:51.886Z,12.00
2019-05-14T21:48:23.160Z,11.98
2019-05-14T21:50:54.494Z,11.96
2019-05-14T21:53:25.869Z,11.96
2019-05-14T21:55:58.682Z,11.93
2019-05-14T21:58:30.166Z,11.91
2019-05-14T22:01:02.497Z,11.89
2019-05-14T22:03:33.771Z,11.85
2019-05-14T22:06:05.235Z,11.83
2019-05-14T22:08:39.239Z,11.80
2019-05-14T22:11:09.807Z,11.77
2019-05-14T22:13:41.136Z,11.75
2019-05-14T22:16:12.452Z,11.75
2019-05-14T22:18:43.881Z,11.72
2019-05-14T22:21:15.376Z,11.71
2019-05-14T22:23:48.156Z,11.71
2019-05-14T22:26:19.646Z,11.69
2019-05-14T22:28:50.957Z,11.67
2019-05-14T22:31:22.341Z,11.64
2019-05-14T22:33:53.762Z,11.62
2019-05-14T22:36:25.445Z,11.58
2019-05-14T22:38:57.889Z,11.55
2019-05-14T22:41:29.654Z,11.49
2019-05-14T22:44:01.177Z,11.48
2019-05-14T22:46:32.802Z,11.44
2019-05-14T22:49:04.223Z,11.41
2019-05-14T22:51:42.854Z,11.41
2019-05-14T22:54:23.360Z,11.40
2019-05-14T22:56:59.006Z,11.37
2019-05-14T22:59:30.740Z,11.33
2019-05-14T23:02:02.050Z,11.30
2019-05-14T23:04:33.662Z,11.27
2019-05-14T23:07:05.021Z,11.23
2019-05-14T23:09:38.558Z,11.19
2019-05-14T23:12:12.084Z,11.17
2019-05-14T23:14:42.640Z,11.14
2019-05-14T23:17:13.857Z,11.11
2019-05-14T23:19:45.360Z,11.08
2019-05-14T23:22:18.574Z,11.05
2019-05-14T23:24:49.772Z,11.01
2019-05-14T23:27:21.019Z,10.94
2019-05-14T23:29:52.379Z,10.90
2019-05-14T23:32:23.690Z,10.87
2019-05-14T23:34:55.067Z,10.83
2019-05-14T23:37:28.944Z,10.79
2019-05-14T23:40:00.299Z,10.75
2019-05-14T23:42:32.014Z,10.70
2019-05-14T23:45:03.477Z,10.68
2019-05-14T23:47:34.922Z,10.64
2019-05-14T23:50:08.156Z,10.61
2019-05-14T23:52:39.374Z,10.57
2019-05-14T23:55:10.645Z,10.53
2019-05-14T23:57:42.071Z,10.49
